Time;durP1;ratioP1;P1;durP2;ratioP2;P2;SDS_P1;SDS_P2;PMS_P1;PMS_P2;Temp;Humidity;BMP_temperature;BMP_pressure;BME280_temperature;BME280_humidity;BME280_pressure;Samples;Min_cycle;Max_cycle;Signal;HPM_P1;HPM_P2
2022/09/09 00:01:14;;;;;;;2.58;1.25;;;;;;;15.91;100.00;98565.69;7397101;19;20010;-87
2022/09/09 00:03:47;;;;;;;3.17;1.55;;;;;;;15.84;100.00;98568.41;7388797;19;20030;-82
2022/09/09 00:06:42;;;;;;;0.85;0.50;;;;;;;15.85;100.00;98575.53;7385223;19;20641;-81
2022/09/09 00:09:14;;;;;;;1.55;0.68;;;;;;;15.87;100.00;98572.94;7387516;19;20025;-81
2022/09/09 00:11:46;;;;;;;1.90;1.20;;;;;;;15.86;100.00;98574.22;7384958;19;20056;-80
2022/09/09 00:14:25;;;;;;;0.68;0.60;;;;;;;15.97;100.00;98573.22;7385685;19;20520;-80
2022/09/09 00:16:58;;;;;;;1.02;0.43;;;;;;;15.98;100.00;98571.94;7387677;19;20092;-81
2022/09/09 00:19:33;;;;;;;2.38;0.50;;;;;;;15.84;100.00;98579.63;7388392;19;20365;-81
2022/09/09 00:22:20;;;;;;;1.65;0.82;;;;;;;15.73;100.00;98574.25;7386578;19;20812;-81
2022/09/09 00:24:53;;;;;;;2.50;0.93;;;;;;;15.73;100.00;98577.03;7389993;19;20014;-81
2022/09/09 00:27:41;;;;;;;4.70;0.68;;;;;;;15.81;100.00;98584.25;7393165;19;20124;-85
2022/09/09 00:30:27;;;;;;;0.30;0.20;;;;;;;15.81;100.00;98580.69;7399262;19;20074;-84
2022/09/09 00:32:57;;;;;;;1.17;0.75;;;;;;;15.80;100.00;98577.16;7399403;19;20126;-84
2022/09/09 00:35:31;;;;;;;2.45;1.50;;;;;;;15.85;100.00;98578.34;7398716;19;20015;-85
2022/09/09 00:38:03;;;;;;;0.65;0.47;;;;;;;15.72;100.00;98578.34;7392314;19;20022;-84
2022/09/09 00:40:38;;;;;;;5.22;1.27;;;;;;;15.48;100.00;98584.19;7392169;19;20027;-84
2022/09/09 00:43:25;;;;;;;6.72;1.17;;;;;;;15.51;100.00;98583.09;7392195;19;20082;-84
2022/09/09 00:46:28;;;;;;;0.75;0.52;;;;;;;15.54;100.00;98576.41;7397167;19;20017;-84
2022/09/09 00:49:15;;;;;;;1.00;0.80;;;;;;;15.35;100.00;98576.50;7392727;19;20014;-84
2022/09/09 00:51:59;;;;;;;0.73;0.10;;;;;;;15.52;100.00;98576.97;7395385;19;20078;-84
2022/09/09 00:54:53;;;;;;;2.33;0.65;;;;;;;15.46;100.00;98578.38;7396926;19;20018;-84
2022/09/09 00:57:31;;;;;;;1.17;0.73;;;;;;;15.57;100.00;98580.97;7392746;19;20024;-85
2022/09/09 01:00:18;;;;;;;1.15;0.75;;;;;;;15.68;100.00;98583.56;7390374;19;20476;-84
2022/09/09 01:03:24;;;;;;;0.50;0.50;;;;;;;15.58;100.00;98583.22;7395979;19;20032;-83
2022/09/09 01:06:15;;;;;;;0.77;0.38;;;;;;;15.69;100.00;98587.84;7397482;19;20014;-84
2022/09/09 01:09:04;;;;;;;0.32;0.15;;;;;;;15.81;100.00;98583.50;7391428;19;20037;-84
2022/09/09 01:11:43;;;;;;;1.27;0.68;;;;;;;15.76;100.00;98579.53;7394819;19;20021;-84
2022/09/09 01:14:25;;;;;;;1.70;0.33;;;;;;;15.97;100.00;98579.59;7392412;19;20075;-84
2022/09/09 01:16:56;;;;;;;0.70;0.70;;;;;;;15.85;100.00;98583.97;7385031;19;20022;-85
2022/09/09 01:19:46;;;;;;;0.80;0.43;;;;;;;15.95;100.00;98593.44;7386178;19;20489;-84
2022/09/09 01:22:24;;;;;;;4.00;0.52;;;;;;;16.02;100.00;98589.97;7392092;19;20031;-84
2022/09/09 01:25:19;;;;;;;0.45;0.38;;;;;;;16.03;100.00;98587.88;7394371;19;20018;-85
2022/09/09 01:28:08;;;;;;;1.95;0.77;;;;;;;15.78;100.00;98584.59;7391305;19;20019;-84
2022/09/09 01:30:38;;;;;;;0.82;0.82;;;;;;;15.66;100.00;98584.06;7392994;19;20019;-84
2022/09/09 01:33:05;;;;;;;0.55;0.55;;;;;;;15.97;100.00;98582.41;7393212;19;20015;-84
2022/09/09 01:35:44;;;;;;;2.95;0.85;;;;;;;15.95;100.00;98587.81;7396535;19;20784;-85
2022/09/09 01:38:10;;;;;;;0.43;0.43;;;;;;;15.60;100.00;98588.28;7390149;19;20015;-83
2022/09/09 01:40:38;;;;;;;0.45;0.45;;;;;;;15.56;100.00;98579.44;7390388;19;20013;-85
2022/09/09 01:43:04;;;;;;;1.27;0.50;;;;;;;15.52;100.00;98590.25;7391036;19;20007;-84
2022/09/09 01:45:31;;;;;;;4.07;0.77;;;;;;;15.60;100.00;98588.28;7393402;19;20025;-84
2022/09/09 01:47:57;;;;;;;0.52;0.52;;;;;;;15.52;100.00;98579.78;7389659;19;20357;-83
2022/09/09 01:50:40;;;;;;;3.10;0.90;;;;;;;15.46;100.00;98583.97;7391997;19;20015;-85
2022/09/09 01:53:07;;;;;;;0.70;0.40;;;;;;;15.39;100.00;98582.56;7390426;19;20007;-84
2022/09/09 01:55:47;;;;;;;0.35;0.35;;;;;;;15.34;100.00;98583.41;7394209;19;20019;-84
2022/09/09 01:58:24;;;;;;;1.60;0.35;;;;;;;15.35;100.00;98584.16;7390241;19;20102;-83
2022/09/09 02:01:24;;;;;;;1.35;0.63;;;;;;;15.40;100.00;98580.50;7390150;19;20014;-84
2022/09/09 02:03:53;;;;;;;1.23;0.50;;;;;;;15.33;100.00;98589.56;7389571;19;20007;-84
2022/09/09 02:06:38;;;;;;;0.50;0.30;;;;;;;15.38;100.00;98583.84;7389193;19;20011;-84
2022/09/09 02:09:22;;;;;;;2.78;0.80;;;;;;;15.54;100.00;98585.59;7388476;19;20366;-85
2022/09/09 02:11:52;;;;;;;;;;;;;;;15.45;100.00;98585.25;7387708;19;20031;-85
2022/09/09 02:14:30;;;;;;;1.55;0.60;;;;;;;15.38;100.00;98583.06;7389217;19;20040;-84
2022/09/09 02:17:03;;;;;;;1.40;0.50;;;;;;;15.46;100.00;98586.78;7395501;19;20014;-84
2022/09/09 02:19:52;;;;;;;3.45;0.70;;;;;;;15.50;100.00;98587.22;7397394;19;20018;-85
2022/09/09 02:22:39;;;;;;;10.13;0.63;;;;;;;15.46;100.00;98584.75;7398970;19;20480;-84
2022/09/09 02:25:10;;;;;;;0.82;0.30;;;;;;;15.32;100.00;98583.19;7400711;19;20271;-84
2022/09/09 02:27:36;;;;;;;2.40;1.15;;;;;;;15.37;100.00;98578.78;7396382;19;20007;-85
2022/09/09 02:30:04;;;;;;;0.98;0.52;;;;;;;15.30;100.00;98579.41;7397790;19;20014;-84
2022/09/09 02:32:43;;;;;;;0.60;0.50;;;;;;;15.04;100.00;98591.34;7402654;19;20046;-83
2022/09/09 02:35:14;;;;;;;3.33;0.67;;;;;;;15.27;100.00;98583.31;7400072;19;20074;-84
2022/09/09 02:37:45;;;;;;;0.50;0.30;;;;;;;15.18;100.00;98593.63;7396597;19;20248;-84
2022/09/09 02:40:17;;;;;;;2.53;0.50;;;;;;;15.23;100.00;98594.84;7396320;19;20476;-84
2022/09/09 02:42:49;;;;;;;0.10;0.10;;;;;;;15.28;100.00;98593.22;7398807;19;20031;-84
2022/09/09 02:45:20;;;;;;;0.32;0.32;;;;;;;15.36;100.00;98600.44;7399410;19;20082;-85
2022/09/09 02:48:03;;;;;;;0.20;0.20;;;;;;;15.35;100.00;98592.59;7399182;19;20014;-84
2022/09/09 02:50:33;;;;;;;0.50;0.30;;;;;;;15.29;100.00;98605.97;7397291;19;20007;-85
2022/09/09 02:53:10;;;;;;;4.50;1.05;;;;;;;15.25;100.00;98595.03;7397643;19;20006;-85
2022/09/09 02:55:52;;;;;;;0.50;0.50;;;;;;;15.45;100.00;98585.25;7401415;19;20017;-84
2022/09/09 02:58:21;;;;;;;4.32;0.95;;;;;;;15.63;100.00;98590.78;7394973;19;20485;-84
2022/09/09 03:00:57;;;;;;;4.40;0.55;;;;;;;15.76;100.00;98592.81;7394440;19;20011;-84
2022/09/09 03:03:24;;;;;;;2.90;0.40;;;;;;;15.89;100.00;98585.13;7392633;19;20074;-84
2022/09/09 03:05:51;;;;;;;0.28;0.17;;;;;;;16.03;100.00;98594.28;7398792;19;20011;-83
2022/09/09 03:08:18;;;;;;;1.08;0.52;;;;;;;15.97;100.00;98596.44;7393869;19;20025;-84
2022/09/09 03:10:44;;;;;;;0.45;0.40;;;;;;;16.17;100.00;98597.81;7396221;19;20025;-84
2022/09/09 03:13:15;;;;;;;0.93;0.30;;;;;;;16.19;100.00;98595.22;7397113;19;20017;-86
2022/09/09 03:15:41;;;;;;;0.93;0.55;;;;;;;16.11;100.00;98600.75;7401391;19;20017;-86
2022/09/09 03:18:12;;;;;;;1.15;0.77;;;;;;;16.01;100.00;98594.06;7395968;19;20013;-86
2022/09/09 03:20:38;;;;;;;9.07;1.10;;;;;;;16.16;100.00;98591.44;7393414;19;20026;-85
2022/09/09 03:23:04;;;;;;;19.20;0.98;;;;;;;16.41;100.00;98594.72;7395067;19;20014;-85
2022/09/09 03:25:31;;;;;;;2.50;0.22;;;;;;;16.40;100.00;98590.38;7398621;19;20030;-86
2022/09/09 03:27:57;;;;;;;0.93;0.50;;;;;;;16.39;100.00;98597.31;7392167;19;20017;-85
2022/09/09 03:30:26;;;;;;;1.95;0.73;;;;;;;16.36;100.00;98598.41;7396824;19;20006;-86
2022/09/09 03:32:57;;;;;;;0.83;0.83;;;;;;;16.39;100.00;98603.69;7400151;19;20854;-86
2022/09/09 03:35:29;;;;;;;0.20;0.20;;;;;;;16.40;100.00;98605.19;7400036;19;20344;-85
2022/09/09 03:37:57;;;;;;;5.47;0.73;;;;;;;16.45;100.00;98607.13;7395152;19;20038;-85
2022/09/09 03:40:23;;;;;;;1.38;0.43;;;;;;;16.54;100.00;98608.75;7392978;19;20112;-86
2022/09/09 03:42:49;;;;;;;0.88;0.40;;;;;;;16.51;100.00;98604.97;7396950;19;20379;-86
2022/09/09 03:45:17;;;;;;;7.55;0.80;;;;;;;16.49;100.00;98601.16;7399511;19;20007;-85
2022/09/09 03:47:43;;;;;;;1.15;0.43;;;;;;;16.49;100.00;98601.91;7395454;19;20025;-85
2022/09/09 03:50:10;;;;;;;0.40;0.40;;;;;;;16.42;100.00;98602.59;7396293;19;20015;-85
2022/09/09 03:52:42;;;;;;;1.10;0.47;;;;;;;16.56;100.00;98603.31;7396030;19;20014;-85
2022/09/09 03:55:14;;;;;;;0.95;0.82;;;;;;;16.57;100.00;98605.59;7399096;19;20021;-85
2022/09/09 03:57:40;;;;;;;1.42;0.70;;;;;;;16.53;100.00;98602.34;7395193;19;20034;-85
2022/09/09 04:00:09;;;;;;;4.43;0.38;;;;;;;16.55;100.00;98605.38;7392232;19;20394;-85
2022/09/09 04:02:49;;;;;;;2.63;1.17;;;;;;;16.48;100.00;98603.19;7400739;19;20007;-85
2022/09/09 04:05:17;;;;;;;0.35;0.32;;;;;;;16.16;100.00;98608.28;7398665;19;20022;-85
2022/09/09 04:07:45;;;;;;;0.95;0.40;;;;;;;16.12;100.00;98610.69;7394836;19;20011;-85
2022/09/09 04:10:13;;;;;;;2.67;0.20;;;;;;;16.22;100.00;98611.72;7395347;19;20014;-85
2022/09/09 04:12:40;;;;;;;2.53;0.65;;;;;;;16.38;100.00;98613.41;7397946;19;20018;-86
2022/09/09 04:15:06;;;;;;;1.73;0.47;;;;;;;16.45;100.00;98621.19;7398603;19;20014;-86
2022/09/09 04:17:34;;;;;;;0.40;0.40;;;;;;;16.44;100.00;98628.09;7393102;19;20014;-85
2022/09/09 04:20:01;;;;;;;1.95;0.70;;;;;;;16.55;100.00;98627.09;7393689;19;20043;-85
2022/09/09 04:22:27;;;;;;;1.35;0.88;;;;;;;16.59;100.00;98619.84;7395189;19;20084;-86
2022/09/09 04:24:53;;;;;;;3.10;0.73;;;;;;;16.61;100.00;98620.03;7398315;19;20019;-85
2022/09/09 04:27:20;;;;;;;0.52;0.40;;;;;;;16.61;100.00;98620.03;7394502;19;20025;-86
2022/09/09 04:29:46;;;;;;;1.08;0.17;;;;;;;16.59;100.00;98628.28;7393573;19;20034;-86
2022/09/09 04:32:13;;;;;;;4.93;0.88;;;;;;;16.68;100.00;98610.94;7390373;19;20018;-86
2022/09/09 04:34:41;;;;;;;6.00;0.88;;;;;;;16.71;100.00;98628.00;7390986;19;20025;-86
2022/09/09 04:37:07;;;;;;;15.80;0.85;;;;;;;16.71;100.00;98628.00;7394982;19;20030;-86
2022/09/09 04:39:33;;;;;;;1.35;0.30;;;;;;;16.74;100.00;98626.94;7392979;19;20014;-86
2022/09/09 04:42:01;;;;;;;1.17;0.40;;;;;;;16.83;100.00;98623.66;7394002;19;20015;-86
2022/09/09 04:44:27;;;;;;;4.85;0.88;;;;;;;16.90;100.00;98628.56;7396425;19;20107;-85
2022/09/09 04:46:54;;;;;;;3.15;0.63;;;;;;;16.87;100.00;98633.22;7394800;19;20034;-86
2022/09/09 04:49:21;;;;;;;2.70;0.30;;;;;;;16.84;100.00;98630.78;7394254;19;20015;-85
2022/09/09 04:51:49;;;;;;;0.80;0.47;;;;;;;16.88;100.00;98634.00;7393508;19;20042;-86
2022/09/09 04:54:16;;;;;;;0.98;0.65;;;;;;;16.94;100.00;98632.56;7393759;19;20014;-86
2022/09/09 04:56:44;;;;;;;0.60;0.20;;;;;;;16.97;100.00;98639.13;7394049;19;20038;-84
2022/09/09 04:59:11;;;;;;;3.47;0.55;;;;;;;16.97;100.00;98633.50;7392991;19;20011;-85
2022/09/09 05:01:44;;;;;;;1.15;0.40;;;;;;;17.07;100.00;98640.16;7394870;19;20014;-85
2022/09/09 05:04:11;;;;;;;0.32;0.25;;;;;;;17.15;100.00;98636.09;7394514;19;20014;-85
2022/09/09 05:06:37;;;;;;;2.58;0.40;;;;;;;17.10;100.00;98648.28;7392543;19;20006;-85
2022/09/09 05:09:04;;;;;;;1.10;0.55;;;;;;;17.11;100.00;98654.63;7388416;19;20063;-83
2022/09/09 05:11:34;;;;;;;2.90;0.85;;;;;;;17.02;100.00;98652.31;7391237;19;20025;-84
2022/09/09 05:14:06;;;;;;;0.47;0.10;;;;;;;16.91;100.00;98658.22;7392087;19;20007;-84
2022/09/09 05:16:33;;;;;;;3.78;1.33;;;;;;;16.66;100.00;98655.72;7392186;19;20743;-86
2022/09/09 05:18:59;;;;;;;0.85;0.45;;;;;;;16.81;100.00;98663.53;7390682;19;20473;-85
2022/09/09 05:21:30;;;;;;;2.13;1.02;;;;;;;16.94;100.00;98657.09;7390363;19;20022;-85
2022/09/09 05:23:57;;;;;;;3.53;0.47;;;;;;;17.14;100.00;98653.53;7394935;19;20092;-85
2022/09/09 05:26:24;;;;;;;4.88;0.47;;;;;;;17.25;100.00;98650.44;7390687;19;20018;-84
2022/09/09 05:28:53;;;;;;;4.15;0.40;;;;;;;17.27;100.00;98657.03;7391080;19;20017;-85
2022/09/09 05:31:19;;;;;;;2.05;0.30;;;;;;;17.31;100.00;98654.63;7391400;19;20187;-82
2022/09/09 05:33:49;;;;;;;1.85;0.43;;;;;;;17.39;100.00;98660.31;7388838;19;20022;-82
2022/09/09 05:36:21;;;;;;;1.55;0.65;;;;;;;17.53;100.00;98663.81;7389534;19;20431;-82
2022/09/09 05:38:50;;;;;;;6.10;0.60;;;;;;;17.53;100.00;98661.75;7388681;19;20015;-83
2022/09/09 05:41:17;;;;;;;2.75;0.45;;;;;;;17.44;100.00;98667.84;7386171;19;20010;-82
2022/09/09 05:43:45;;;;;;;2.00;1.02;;;;;;;17.39;100.00;98669.50;7385522;19;20010;-82
2022/09/09 05:46:14;;;;;;;2.00;0.45;;;;;;;17.37;100.00;98672.13;7385362;19;20026;-82
2022/09/09 05:48:42;;;;;;;1.98;0.40;;;;;;;17.33;100.00;98666.09;7384483;19;20015;-82
2022/09/09 05:51:18;;;;;;;2.30;0.47;;;;;;;17.38;100.00;98675.69;7389327;19;20014;-82
2022/09/09 05:53:45;;;;;;;4.35;0.40;;;;;;;17.49;100.00;98666.97;7391179;19;20018;-82
2022/09/09 05:56:21;;;;;;;13.55;0.90;;;;;;;17.39;100.00;98668.75;7391709;19;20011;-83
2022/09/09 05:58:49;;;;;;;0.40;0.35;;;;;;;17.42;100.00;98679.66;7389607;19;20011;-82
2022/09/09 06:01:22;;;;;;;0.75;0.40;;;;;;;17.30;100.00;98675.63;7392295;19;20010;-82
2022/09/09 06:03:49;;;;;;;1.63;0.47;;;;;;;17.34;100.00;98678.09;7393747;19;20018;-82
2022/09/09 06:06:20;;;;;;;1.08;0.45;;;;;;;17.35;100.00;98676.78;7395623;19;20104;-82
2022/09/09 06:08:50;;;;;;;1.95;0.73;;;;;;;17.43;100.00;98680.44;7395328;19;20018;-84
2022/09/09 06:11:19;;;;;;;3.97;1.33;;;;;;;17.42;100.00;98687.34;7398944;19;20081;-85
2022/09/09 06:13:47;;;;;;;0.80;0.75;;;;;;;17.48;100.00;98687.22;7399015;19;20039;-84
2022/09/09 06:16:16;;;;;;;0.55;0.47;;;;;;;17.57;100.00;98695.94;7398993;19;20019;-84
2022/09/09 06:18:43;;;;;;;0.55;0.20;;;;;;;17.47;100.00;98697.72;7396132;19;20015;-83
2022/09/09 06:21:17;;;;;;;1.30;0.63;;;;;;;17.44;100.00;98696.00;7395251;19;20014;-85
2022/09/09 06:23:44;;;;;;;0.52;0.47;;;;;;;17.33;100.00;98682.97;7397719;19;20006;-84
2022/09/09 06:26:19;;;;;;;1.90;0.63;;;;;;;17.20;100.00;98687.91;7394830;19;20025;-84
2022/09/09 06:28:49;;;;;;;2.10;0.60;;;;;;;17.17;100.00;98697.47;7393829;19;20007;-84
2022/09/09 06:31:21;;;;;;;2.28;1.50;;;;;;;17.32;100.00;98703.22;7397556;19;20002;-84
2022/09/09 06:33:49;;;;;;;5.28;0.75;;;;;;;17.29;100.00;98704.31;7398980;19;20011;-84
2022/09/09 06:36:18;;;;;;;1.80;1.15;;;;;;;17.38;100.00;98712.28;7406565;19;20013;-84
2022/09/09 06:38:45;;;;;;;0.45;0.40;;;;;;;17.54;100.00;98710.38;7413723;19;20010;-85
2022/09/09 06:41:15;;;;;;;3.65;1.42;;;;;;;17.58;100.00;98710.78;7413930;19;20006;-83
2022/09/09 06:43:47;;;;;;;11.85;2.10;;;;;;;17.57;100.00;98724.09;7420714;19;20013;-84
2022/09/09 06:46:16;;;;;;;1.33;0.88;;;;;;;17.78;100.00;98715.63;7416120;19;20011;-84
2022/09/09 06:48:46;;;;;;;11.13;2.20;;;;;;;17.94;100.00;98722.88;7404502;19;20082;-83
2022/09/09 06:51:18;;;;;;;3.53;1.08;;;;;;;17.97;100.00;98716.91;7397609;19;20018;-85
2022/09/09 06:53:46;;;;;;;4.47;1.20;;;;;;;18.16;100.00;98727.88;7399996;19;20524;-85
2022/09/09 06:56:18;;;;;;;3.15;1.13;;;;;;;18.41;100.00;98728.94;7398557;19;20022;-85
2022/09/09 06:58:45;;;;;;;3.78;0.70;;;;;;;18.58;100.00;98728.50;7394312;19;20035;-85
2022/09/09 07:01:19;;;;;;;3.17;1.13;;;;;;;18.65;100.00;98728.53;7394194;19;20024;-85
2022/09/09 07:03:54;;;;;;;2.03;1.40;;;;;;;18.65;100.00;98730.59;7394629;19;20014;-85
2022/09/09 07:06:23;;;;;;;6.50;1.25;;;;;;;18.70;100.00;98738.13;7392871;19;20379;-85
2022/09/09 07:08:58;;;;;;;2.77;1.63;;;;;;;18.75;100.00;98743.59;7394769;19;20033;-85
2022/09/09 07:11:29;;;;;;;3.13;0.47;;;;;;;18.85;100.00;98741.00;7396011;19;20027;-84
2022/09/09 07:13:57;;;;;;;3.33;0.55;;;;;;;18.86;100.00;98742.53;7396400;19;20014;-84
2022/09/09 07:16:24;;;;;;;5.00;2.15;;;;;;;18.91;100.00;98742.34;7395584;19;20022;-84
2022/09/09 07:18:52;;;;;;;1.92;1.00;;;;;;;18.94;100.00;98743.28;7393405;19;20037;-84
2022/09/09 07:21:20;;;;;;;4.45;1.95;;;;;;;19.03;100.00;98745.56;7389887;19;20346;-82
2022/09/09 07:23:47;;;;;;;6.00;1.70;;;;;;;19.16;100.00;98748.25;7390642;19;20042;-83
2022/09/09 07:26:21;;;;;;;7.72;1.73;;;;;;;19.28;100.00;98749.38;7395036;19;20018;-88
2022/09/09 07:28:49;;;;;;;8.20;1.95;;;;;;;19.35;100.00;98743.03;7396325;19;20449;-90
2022/09/09 07:31:17;;;;;;;5.15;1.33;;;;;;;19.47;100.00;98749.81;7398985;19;20010;-88
2022/09/09 07:33:44;;;;;;;1.33;0.50;;;;;;;19.55;100.00;98753.41;7397565;19;20029;-89
2022/09/09 07:36:22;;;;;;;8.48;1.92;;;;;;;19.64;100.00;98758.47;7396101;19;20070;-88
2022/09/09 07:38:52;;;;;;;3.78;1.67;;;;;;;19.71;100.00;98756.25;7394394;19;20039;-87
2022/09/09 07:41:24;;;;;;;6.10;2.03;;;;;;;19.82;100.00;98745.28;7391277;19;20704;-85
2022/09/09 07:43:53;;;;;;;6.90;1.35;;;;;;;19.98;100.00;98746.78;7387851;19;20085;-87
2022/09/09 07:46:24;;;;;;;2.03;1.05;;;;;;;20.01;100.00;98748.47;7391050;19;20018;-86
2022/09/09 07:48:56;;;;;;;6.90;2.47;;;;;;;20.07;100.00;98756.75;7393180;19;20722;-86
2022/09/09 07:51:29;;;;;;;7.18;1.30;;;;;;;20.21;100.00;98758.06;7394040;19;20022;-85
2022/09/09 07:54:04;;;;;;;6.55;2.03;;;;;;;20.44;100.00;98747.47;7394363;19;20039;-88
2022/09/09 07:56:33;;;;;;;6.35;1.08;;;;;;;20.51;100.00;98760.09;7395651;19;20036;-88
2022/09/09 07:59:00;;;;;;;5.85;1.98;;;;;;;20.68;100.00;98752.47;7393728;19;20019;-88
2022/09/09 08:01:37;;;;;;;6.38;1.60;;;;;;;20.78;100.00;98764.69;7393070;19;20014;-89
2022/09/09 08:04:06;;;;;;;7.13;2.22;;;;;;;20.90;100.00;98771.44;7394039;19;20827;-87
2022/09/09 08:06:37;;;;;;;5.97;1.75;;;;;;;21.01;100.00;98771.00;7393381;19;20022;-87
2022/09/09 08:09:05;;;;;;;5.97;1.52;;;;;;;20.97;100.00;98770.66;7392967;19;20354;-87
2022/09/09 08:11:33;;;;;;;4.00;1.35;;;;;;;20.96;100.00;98774.78;7394449;19;20006;-87
2022/09/09 08:14:00;;;;;;;2.30;1.20;;;;;;;20.96;100.00;98776.88;7391593;19;20356;-81
2022/09/09 08:16:30;;;;;;;10.82;1.98;;;;;;;21.10;100.00;98783.81;7393290;19;20025;-86
2022/09/09 08:18:58;;;;;;;;;;;;;;;21.17;100.00;98782.28;7390696;19;20042;-85
2022/09/09 08:21:27;;;;;;;11.93;2.55;;;;;;;21.19;100.00;98769.03;7391957;19;19918;-86
2022/09/09 08:23:55;;;;;;;;;;;;;;;21.20;100.00;98775.47;7392770;19;20022;-88
2022/09/09 08:26:28;;;;;;;3.60;0.57;;;;;;;21.30;100.00;98782.00;7392336;19;19919;-88
2022/09/09 08:28:56;;;;;;;4.25;1.80;;;;;;;21.18;100.00;98783.78;7392081;19;20018;-90
2022/09/09 08:31:46;;;;;;;4.15;2.00;;;;;;;21.16;100.00;98789.28;7399629;19;20010;-88
2022/09/09 08:34:14;;;;;;;8.25;2.40;;;;;;;21.25;100.00;98791.47;7394737;19;20022;-89
2022/09/09 08:36:43;;;;;;;12.40;3.17;;;;;;;21.27;100.00;98788.84;7391671;19;20039;-87
2022/09/09 08:39:12;;;;;;;8.93;1.23;;;;;;;21.48;100.00;98789.25;7391518;19;20023;-88
2022/09/09 08:41:44;;;;;;;2.70;1.20;;;;;;;21.57;100.00;98795.03;7393386;19;20039;-87
2022/09/09 08:44:23;;;;;;;15.75;1.80;;;;;;;21.75;100.00;98798.69;7393294;19;20008;-87
2022/09/09 08:47:17;;;;;;;6.80;1.98;;;;;;;21.79;100.00;98796.97;7392309;19;20715;-87
2022/09/09 08:50:01;;;;;;;6.38;2.08;;;;;;;21.87;100.00;98799.78;7393497;19;20026;-86
2022/09/09 08:52:36;;;;;;;2.17;1.48;;;;;;;21.91;100.00;98800.13;7391524;19;20014;-89
2022/09/09 08:55:38;;;;;;;4.45;3.03;;;;;;;21.97;100.00;98800.63;7393985;19;20025;-92
2022/09/09 08:58:15;;;;;;;12.32;1.67;;;;;;;22.05;100.00;98806.97;7391586;19;20389;-95
2022/09/09 09:01:04;;;;;;;5.88;2.10;;;;;;;22.05;100.00;98809.06;7390447;19;20020;-89
2022/09/09 09:03:37;;;;;;;5.10;1.63;;;;;;;22.09;100.00;98818.66;7392288;19;20006;-90
2022/09/09 09:06:30;;;;;;;5.75;2.65;;;;;;;22.20;100.00;98815.34;7398793;19;20023;-88
2022/09/09 09:09:06;;;;;;;6.25;1.48;;;;;;;22.38;100.00;98816.88;7389009;19;20464;-87
2022/09/09 09:11:38;;;;;;;8.93;2.15;;;;;;;22.53;100.00;98828.09;7391061;19;20014;-85
2022/09/09 09:14:21;;;;;;;4.95;1.65;;;;;;;22.54;100.00;98823.91;7395843;19;20070;-87
2022/09/09 09:16:59;;;;;;;9.77;3.20;;;;;;;22.70;100.00;98832.31;7394140;19;20018;-86
2022/09/09 09:19:29;;;;;;;5.65;1.58;;;;;;;22.84;100.00;98828.53;7393290;19;20341;-85
2022/09/09 09:22:00;;;;;;;4.68;2.17;;;;;;;22.85;100.00;98829.28;7385977;19;20019;-79
2022/09/09 09:24:35;;;;;;;;;;;;;;;22.90;100.00;98831.09;7388672;19;20464;-79
2022/09/09 09:27:13;;;;;;;3.45;0.90;;;;;;;23.02;100.00;98832.13;7391660;19;20575;-79
2022/09/09 09:29:44;;;;;;;7.18;1.88;;;;;;;23.12;100.00;98844.28;7392790;19;20014;-79
2022/09/09 09:32:16;;;;;;;4.93;0.55;;;;;;;23.12;100.00;98844.28;7391740;19;20766;-79
2022/09/09 09:34:49;;;;;;;6.45;1.35;;;;;;;23.11;100.00;98845.63;7394764;19;20131;-80
2022/09/09 09:37:22;;;;;;;4.00;1.65;;;;;;;23.08;100.00;98846.81;7394085;19;20010;-79
2022/09/09 09:39:49;;;;;;;4.72;1.10;;;;;;;22.98;100.00;98851.66;7393705;19;20369;-79
2022/09/09 09:42:19;;;;;;;4.60;1.13;;;;;;;22.86;100.00;98853.50;7393380;19;20010;-79
2022/09/09 09:44:47;;;;;;;2.90;1.05;;;;;;;22.93;100.00;98852.66;7395300;19;20048;-79
2022/09/09 09:47:21;;;;;;;2.35;1.08;;;;;;;22.92;100.00;98856.84;7393994;19;20031;-79
2022/09/09 09:50:19;;;;;;;4.15;1.52;;;;;;;23.01;100.00;98859.75;7394549;19;20006;-78
2022/09/09 09:52:55;;;;;;;5.47;1.27;;;;;;;22.97;100.00;98864.34;7395081;19;20048;-78
2022/09/09 09:55:24;;;;;;;5.72;1.58;;;;;;;23.12;100.00;98867.00;7394127;19;20025;-79
2022/09/09 09:57:50;;;;;;;0.85;0.80;;;;;;;23.15;100.00;98868.69;7393644;19;20098;-78
2022/09/09 10:00:20;;;;;;;4.13;0.73;;;;;;;23.24;100.00;98865.16;7392416;19;20038;-78
2022/09/09 10:02:53;;;;;;;3.83;1.13;;;;;;;23.21;100.00;98866.34;7393967;19;20039;-79
2022/09/09 10:05:26;;;;;;;2.75;0.50;;;;;;;23.15;100.00;98874.38;7396685;19;20025;-78
2022/09/09 10:08:24;;;;;;;;;;;;;;;23.30;100.00;98874.91;7393384;19;20081;-78
2022/09/09 10:11:09;;;;;;;;;;;;;;;23.20;100.00;98879.78;7392933;19;19922;-78
2022/09/09 10:13:54;;;;;;;;;;;;;;;23.23;100.00;98880.72;7392877;19;20015;-79
2022/09/09 10:16:23;;;;;;;;;;;;;;;23.28;100.00;98876.88;7388287;19;19918;-78
2022/09/09 10:18:58;;;;;;;;;;;;;;;23.25;100.00;98883.72;7390050;19;20329;-79
2022/09/09 10:21:30;;;;;;;;;;;;;;;23.41;100.00;98882.22;7387996;19;19919;-79
2022/09/09 10:24:11;;;;;;;;;;;;;;;23.56;100.00;98879.19;7387492;19;19950;-78
2022/09/09 10:26:59;;;;;;;;;;;;;;;23.74;100.00;98886.28;7385121;19;20344;-79
2022/09/09 10:29:38;;;;;;;;;;;;;;;24.02;100.00;98891.38;7386343;19;19925;-78
2022/09/09 10:32:13;;;;;;;;;;;;;;;24.06;100.00;98894.56;7389140;19;20199;-78
2022/09/09 10:34:57;;;;;;;;;;;;;;;24.13;100.00;98895.06;7390400;19;19922;-78
2022/09/09 10:37:32;;;;;;;;;;;;;;;24.14;100.00;98894.47;7388869;19;19922;-78
2022/09/09 10:40:21;;;;;;;;;;;;;;;24.00;100.00;98896.91;7388680;19;19964;-78
2022/09/09 10:42:48;;;;;;;;;;;;;;;23.88;100.00;98892.38;7389881;19;20362;-78
2022/09/09 10:45:17;;;;;;;;;;;;;;;23.71;100.00;98889.56;7393531;19;19919;-79
2022/09/09 10:47:59;;;;;;;;;;;;;;;23.53;100.00;98891.72;7391893;19;19911;-78
2022/09/09 10:50:43;;;;;;;;;;;;;;;23.42;100.00;98895.06;7388692;19;19926;-78
2022/09/09 10:53:09;;;;;;;;;;;;;;;23.21;100.00;98894.75;7388680;19;19926;-78
2022/09/09 10:55:38;;;;;;;;;;;;;;;23.00;100.00;98903.69;7388993;19;19925;-79
2022/09/09 10:58:06;;;;;;;;;;;;;;;23.02;100.00;98900.28;7390704;19;20302;-78
2022/09/09 11:00:38;;;;;;;;;;;;;;;22.92;100.00;98907.94;7388792;19;19922;-78
2022/09/09 11:03:04;;;;;;;;;;;;;;;22.87;100.00;98895.50;7388990;19;20313;-78
2022/09/09 11:05:34;;;;;;;;;;;;;;;22.86;100.00;98894.00;7391462;19;19918;-78
2022/09/09 11:08:00;;;;;;;;;;;;;;;22.79;100.00;98899.75;7386418;19;19919;-78
2022/09/09 11:10:39;;;;;;;;;;;;;;;22.79;100.00;98902.59;7387794;19;20483;-78
2022/09/09 11:13:10;;;;;;;;;;;;;;;23.01;100.00;98896.69;7390064;19;19922;-77
2022/09/09 11:15:41;;;;;;;;;;;;;;;23.26;100.00;98893.72;7389890;19;19923;-78
2022/09/09 11:18:11;;;;;;;;;;;;;;;23.49;100.00;98899.91;7387554;19;20290;-78
2022/09/09 11:20:37;;;;;;;;;;;;;;;23.52;100.00;98901.56;7388740;19;20270;-78
2022/09/09 11:23:12;;;;;;;;;;;;;;;23.74;100.00;98899.75;7391206;19;19933;-78
2022/09/09 11:25:55;;;;;;;;;;;;;;;23.93;100.00;98900.59;7390793;19;19923;-78
2022/09/09 11:28:24;;;;;;;;;;;;;;;24.20;100.00;98900.63;7389305;19;19941;-78
2022/09/09 11:30:53;;;;;;;;;;;;;;;24.56;100.00;98899.84;7389671;19;19931;-78
2022/09/09 11:33:28;;;;;;;;;;;;;;;24.91;100.00;98898.25;7387995;19;19923;-78
2022/09/09 11:36:12;;;;;;;;;;;;;;;24.96;100.00;98893.63;7391299;19;19926;-78
2022/09/09 11:38:46;;;;;;;;;;;;;;;24.70;100.00;98898.06;7386534;19;19926;-77
2022/09/09 11:41:14;;;;;;;;;;;;;;;24.39;100.00;98905.59;7386433;19;19927;-77
2022/09/09 11:43:42;;;;;;;;;;;;;;;24.15;100.00;98907.31;7388427;19;19922;-77
2022/09/09 11:46:10;;;;;;;;;;;;;;;23.90;100.00;98916.03;7387378;19;20296;-78
2022/09/09 11:48:43;;;;;;;;;;;;;;;23.70;100.00;98925.03;7385276;19;19935;-78
2022/09/09 11:51:12;;;;;;;;;;;;;;;23.41;100.00;98924.84;7387248;19;20795;-78
2022/09/09 11:53:49;;;;;;;;;;;;;;;23.18;100.00;98924.31;7383807;19;19922;-77
2022/09/09 11:56:24;;;;;;;;;;;;;;;22.90;100.00;98928.41;7386188;19;19923;-78
2022/09/09 11:59:17;;;;;;;;;;;;;;;22.88;100.00;98918.97;7388061;19;19923;-78
2022/09/09 12:01:44;;;;;;;;;;;;;;;22.75;100.00;98928.56;7387986;19;19926;-80
2022/09/09 12:04:10;;;;;;;;;;;;;;;22.54;100.00;98928.91;7386548;19;19944;-78